EW9008 Weather Reports


Display with metric or nautical units.
time (UTC)temp
F
wind
direction
speed
MPH
gust
MPH
rain 1hr
in
rain 24hr
in
rain mn
in
humidity
%
barometer
mb
20191211091022 44 36 0.0 0.0 0.01 0.35 0.15 93 1021.3
20191211090521 44 36 0.0 0.0 0.01 0.35 0.15 93 1021.5
20191211090114 44 36 0.0 0.0 0.01 0.35 0.15 93 1021.2
20191211085528 44 36 0.0 0.0 0.01 0.35 0.15 93 1021.2
20191211085037 44 36 0.0 0.0 0.02 0.35 0.15 93 1021.4
20191211084629 45 36 0.0 0.0 0.02 0.35 0.15 93 1021.5
20191211084036 45 36 0.0 0.0 0.02 0.35 0.15 93 1021.6
20191211083529 45 36 0.0 0.0 0.03 0.35 0.15 92 1021.7
20191211083121 45 36 0.0 0.0 0.03 0.35 0.15 92 1021.6
20191211082541 45 36 0.0 0.0 0.04 0.35 0.15 92 1021.1
20191211082028 45 36 0.0 0.0 0.04 0.35 0.15 93 1020.9
20191211081605 45 36 0.0 0.0 0.04 0.35 0.15 92 1021.2
20191211081028 45 36 0.0 0.0 0.04 0.34 0.14 92 1021.2
20191211080528 45 36 0.0 0.0 0.05 0.34 0.14 92 1021.2
20191211080108 45 36 0.0 0.0 0.07 0.34 0.14 92 1021.3
20191211075517 45 36 0.0 0.0 0.07 0.34 0.14 92 1021.5
20191211075024 45 36 0.0 0.0 0.06 0.33 0.13 92 1021.3
20191211074609 45 36 0.0 0.0 0.06 0.33 0.13 92 1021.2
20191211074014 45 36 0.0 0.0 0.07 0.33 0.13 92 1021.1
20191211073521 46 36 0.0 0.0 0.06 0.32 0.12 92 1021.2
20191211073044 46 36 0.0 0.0 0.07 0.32 0.12 92 1020.9
20191211072513 46 36 0.0 0.0 0.06 0.31 0.11 92 1020.5
20191211072038 46 38 0.0 0.0 0.07 0.31 0.11 92 1020.4
20191211071515 46 38 0.0 1.0 0.07 0.31 0.11 93 1020.6
20191211071025 46 38 0.0 3.0 0.07 0.30 0.10 93 1020.4
20191211070523 47 26 0.0 1.0 0.05 0.28 0.08 92 1020.3
20191211070033 47 26 0.0 1.0 0.04 0.27 0.07 92 1020.0
20191211065506 47 25 0.0 1.0 0.04 0.27 0.07 93 1020.3
20191211065008 47 32 0.0 0.0 0.04 0.27 0.07 93 1019.9
20191211064511 47 32 0.0 1.0 0.05 0.27 0.07 93 1020.1
20191211064008 47 32 0.0 1.0 0.05 0.26 0.06 93 1019.8
20191211063504 47 33 0.0 0.0 0.05 0.26 0.06 93 1020.0
20191211063011 47 33 0.0 0.0 0.04 0.25 0.05 93 1019.9
20191211062509 48 33 0.0 0.0 0.04 0.24 0.04 93 1019.7
20191211062001 48 33 0.0 3.0 0.04 0.24 0.04 93 1019.7
20191211061501 48 33 0.0 3.0 0.04 0.24 0.04 93 1019.8
20191211061137 48 339 0.0 0.0 0.03 0.23 0.03 93 1019.7
20191211060607 48 339 0.0 3.0 0.03 0.23 0.03 93 1019.6
20191211060333 48 339 0.0 3.0 0.03 0.23 0.03 93 1019.5
20191211051627 49 303 0.0 0.0 0.01 0.20 0.00 93 1019.2
20191211051100 49 303 0.0 0.0 0.01 0.20 0.00 93 1019.2
20191211050553 49 303 0.0 0.0 0.01 0.20 0.00 93 1019.2
20191211050316 49 303 0.0 0.0 0.01 0.20 0.00 93 1019.2
20191211045556 49 303 0.0 0.0 0.00 0.19 0.19 93 1019.0
20191211045051 49 303 0.0 0.0 0.00 0.19 0.19 93 1019.0
20191211044712 49 303 0.0 0.0 0.00 0.19 0.19 93 1019.1
20191211044055 49 303 0.0 0.0 0.00 0.19 0.19 93 1019.0
20191211043613 49 303 0.0 0.0 0.00 0.19 0.19 93 1019.0
20191211043339 49 303 0.0 0.0 0.00 0.19 0.19 93 1019.0
20191211042552 49 303 0.0 0.0 0.00 0.19 0.19 93 1019.1
20191211042049 49 303 0.0 0.0 0.00 0.19 0.19 93 1019.1
20191211041641 49 303 0.0 0.0 0.00 0.19 0.19 92 1018.8
20191211041124 49 303 0.0 0.0 0.00 0.19 0.19 92 1018.7
20191211040611 49 303 0.0 0.0 0.00 0.19 0.19 92 1018.9
20191211040254 49 303 0.0 0.0 0.00 0.19 0.19 92 1018.7
20191211035600 49 303 0.0 0.0 0.00 0.19 0.19 92 1018.6
20191211035113 49 303 0.0 0.0 0.00 0.19 0.19 92 1018.5
20191211034731 49 303 0.0 0.0 0.01 0.19 0.19 92 1018.5
20191211034045 49 303 0.0 0.0 0.02 0.19 0.19 92 1018.5
20191211033550 49 303 0.0 0.0 0.02 0.19 0.19 92 1018.5
20191211033148 49 302 0.0 0.0 0.02 0.19 0.19 92 1018.6
20191211032552 49 302 0.0 0.0 0.02 0.19 0.19 92 1018.4
20191211032053 50 302 0.0 0.0 0.03 0.19 0.19 92 1018.4
20191211031800 50 302 0.0 0.0 0.04 0.19 0.19 92 1018.3
20191211031133 50 302 0.0 0.0 0.04 0.19 0.19 92 1018.3
20191211030602 50 302 0.0 0.0 0.04 0.19 0.19 92 1018.3
20191211030116 50 302 0.0 0.0 0.04 0.19 0.19 92 1018.4
20191211025616 50 302 0.0 0.0 0.06 0.19 0.19 92 1018.5
20191211025042 50 302 0.0 1.0 0.08 0.19 0.19 92 1018.4
20191211024734 50 302 0.0 1.0 0.07 0.18 0.18 92 1018.4
20191211024109 50 291 0.0 0.0 0.07 0.17 0.17 92 1018.4
20191211023607 50 291 0.0 0.0 0.09 0.17 0.17 92 1018.3
20191211023255 50 291 0.0 0.0 0.10 0.17 0.17 92 1018.2
20191211022539 50 291 0.0 0.0 0.10 0.17 0.17 92 1018.1
20191211022040 50 291 0.0 0.0 0.10 0.16 0.16 92 1018.1
20191211021743 50 291 0.0 0.0 0.10 0.15 0.15 92 1018.2
20191211021036 50 291 0.0 0.0 0.11 0.15 0.15 92 1018.1
20191211020538 50 291 0.0 1.0 0.11 0.15 0.15 92 1017.8
20191211020108 51 291 0.0 1.0 0.11 0.14 0.14 91 1017.8
20191211015536 51 43 0.0 1.0 0.10 0.13 0.13 91 1017.8
20191211015043 51 43 0.0 1.0 0.08 0.11 0.11 91 1017.9
20191211014650 51 43 0.0 1.0 0.08 0.11 0.11 91 1017.9
20191211014037 51 43 0.0 1.0 0.09 0.10 0.10 91 1017.6
20191211013534 51 19 0.0 1.0 0.07 0.08 0.08 91 1018.0
20191211013058 51 22 0.0 0.0 0.06 0.07 0.07 91 1017.9
20191211012541 51 22 0.0 0.0 0.06 0.07 0.07 91 1017.5
20191211012037 51 22 0.0 0.0 0.05 0.06 0.06 91 1017.6
20191211011702 52 22 0.0 0.0 0.04 0.05 0.05 91 1017.4
20191211011029 52 22 0.0 0.0 0.04 0.04 0.04 91 1017.4
20191211010611 52 22 0.0 0.0 0.03 0.03 0.03 91 1017.4
20191211010151 52 22 0.0 0.0 0.03 0.03 0.03 90 1017.2
20191211005527 52 22 0.0 0.0 0.03 0.03 0.03 91 1017.2
20191211005036 52 22 0.0 0.0 0.03 0.03 0.03 90 1017.1
20191211004537 52 22 0.0 0.0 0.03 0.03 0.03 90 1017.0
20191211004025 53 22 0.0 2.0 0.01 0.01 0.01 90 1016.9
20191211003524 53 15 0.0 2.0 0.01 0.01 0.01 91 1016.9
20191211003051 53 5 0.0 1.0 0.01 0.01 0.01 91 1016.6
20191211002527 53 5 0.0 1.0 0.01 0.01 0.01 90 1016.4
20191211002238 53 5 0.0 1.0 0.01 0.01 0.01 90 1016.4
20191211001602 53 342 0.0 2.0 0.01 0.01 0.01 90 1016.5
20191211001025 54 342 0.0 2.0 0.00 0.00 0.00 90 1016.5
20191211000521 54 311 0.0 0.0 0.00 0.00 0.00 90 1016.6
20191211000112 54 275 0.0 0.0 0.00 0.00 0.00 90 1016.3
20191210235517 54 275 0.0 0.0 0.00 0.00 0.00 90 1016.2
20191210235158 54 271 0.0 1.0 0.00 0.00 0.00 90 1016.1
20191210234703 55 271 0.0 1.0 0.00 0.00 0.00 90 1016.2
20191210234015 55 336 0.0 0.0 0.00 0.00 0.00 90 1016.1
20191210233513 55 317 0.0 0.0 0.00 0.00 0.00 90 1016.1
20191210233039 55 317 0.0 0.0 0.00 0.00 0.00 90 1016.4
20191210232526 0 0.0 0.0 0.00 0.00 0.00
20191210232027 0 0.0 0.0 0.00 0.00 0.00
20191210231536 0 0.0 0.0 0.00 0.00 0.00
20191210212549 62 5 0.0 0.0 0.00 0.00 0.00 84 1013.2
20191210212053 62 5 0.0 0.0 0.00 0.00 0.00 84 1013.0
20191210211900 62 5 0.0 1.0 0.00 0.00 0.00 83 1012.9
20191210211049 62 53 0.0 3.0 0.00 0.00 0.00 83 1013.2
20191210210623 63 55 0.0 3.0 0.00 0.00 0.00 82 1012.9
20191210210204 63 310 0.0 2.0 0.00 0.00 0.00 82 1012.7
20191210205557 64 351 0.0 2.0 0.00 0.00 0.00 82 1012.9
20191210205056 64 51 0.0 0.0 0.00 0.00 0.00 82 1012.6
20191210204726 64 51 0.0 0.0 0.00 0.00 0.00 81 1012.4
20191210204057 65 49 0.0 1.0 0.00 0.00 0.00 81 1012.1
20191210203627 65 355 0.0 1.0 0.00 0.00 0.00 81 1012.0
20191210203157 66 67 0.0 1.0 0.00 0.00 0.00 81 1011.9
20191210202607 67 187 0.0 5.0 0.00 0.00 0.00 80 1011.8
20191210202134 67 11 0.0 5.0 0.00 0.00 0.00 79 1011.7
20191210201630 68 49 0.0 6.0 0.00 0.00 0.00 78 1011.3
20191210201051 69 28 1.0 6.0 0.00 0.00 0.00 77 1011.3
20191210200547 70 63 0.0 4.0 0.00 0.00 0.00 76 1011.1
20191210200336 71 61 0.0 5.0 0.00 0.00 0.00 75 1011.0
20191210195547 72 39 1.0 5.0 0.00 0.00 0.00 75 1011.1
20191210195102 72 48 0.0 4.0 0.00 0.00 0.00 73 1010.9
20191210194650 72 112 0.0 4.0 0.00 0.00 0.00 74 1010.6
20191210194045 72 150 0.0 4.0 0.00 0.00 0.00 74 1010.5
20191210193545 72 185 0.0 6.0 0.00 0.00 0.00 74 1010.6
20191210193138 72 76 1.0 6.0 0.00 0.00 0.00 74 1010.6
20191210192558 72 88 0.0 2.0 0.00 0.00 0.00 75 1010.6
20191210192043 72 90 0.0 4.0 0.00 0.00 0.00 75 1010.6
20191210191719 72 76 0.0 4.0 0.00 0.00 0.00 75 1010.7
20191210191048 72 90 0.0 3.0 0.00 0.00 0.00 75 1010.8
20191210190555 72 108 0.0 6.0 0.00 0.00 0.00 75 1010.8
20191210190226 72 74 1.0 6.0 0.00 0.00 0.00 75 1010.9
20191210185543 72 93 0.0 6.0 0.00 0.00 0.00 76 1010.9
20191210185201 72 98 0.0 4.0 0.00 0.00 0.00 76 1011.0
20191210185047 72 110 0.0 4.0 0.00 0.00 0.00 76 1011.0
20191210184040 72 209 0.0 4.0 0.00 0.00 0.00 77 1011.0
20191210183541 71 82 0.0 4.0 0.00 0.00 0.00 77 1011.1
20191210183213 72 76 0.0 9.0 0.00 0.00 0.00 77 1011.2
20191210182538 72 140 0.0 9.0 0.00 0.00 0.00 77 1011.2
20191210182113 72 70 0.0 4.0 0.00 0.00 0.00 78 1011.2
20191210181800 71 101 0.0 4.0 0.00 0.00 0.00 78 1011.2
20191210181134 71 138 0.0 5.0 0.00 0.00 0.00 78 1011.4
20191210180538 71 56 0.0 6.0 0.00 0.00 0.00 80 1011.4
20191210180251 70 84 0.0 6.0 0.00 0.00 0.00 80 1011.4
20191210175540 70 86 1.0 4.0 0.00 0.00 0.00 80 1011.5
20191210175032 70 82 0.0 3.0 0.00 0.00 0.00 81 1011.7
20191210174753 69 97 0.0 3.0 0.00 0.00 0.00 83 1011.7
20191210174031 69 99 0.0 6.0 0.00 0.00 0.00 83 1011.9
20191210173536 69 96 0.0 6.0 0.00 0.00 0.00 83 1011.9
20191210173146 69 84 0.0 4.0 0.00 0.00 0.00 83 1012.0
20191210172529 68 92 0.0 5.0 0.00 0.00 0.00 83 1012.0
20191210172029 68 74 0.0 5.0 0.00 0.00 0.00 84 1012.1
20191210171601 68 101 0.0 3.0 0.00 0.00 0.00 84 1012.0
20191210171027 68 88 0.0 3.0 0.00 0.00 0.00 84 1012.0
20191210170626 68 91 0.0 4.0 0.00 0.00 0.00 84 1012.2
20191210170040 68 90 0.0 4.0 0.00 0.00 0.00 84 1012.2
20191210165528 68 137 0.0 3.0 0.00 0.00 0.00 84 1012.2
20191210165025 68 119 0.0 4.0 0.00 0.00 0.00 86 1012.4
20191210164723 67 80 0.0 4.0 0.00 0.00 0.00 90 1012.2
20191210164057 65 129 0.0 5.0 0.00 0.00 0.00 92 1012.4
20191210163537 65 74 1.0 4.0 0.00 0.00 0.00 93 1012.5
20191210163044 64 77 0.0 3.0 0.00 0.00 0.00 93 1012.6
20191210162524 64 180 0.0 4.0 0.00 0.00 0.00 93 1012.8
20191210162038 64 78 0.0 4.0 0.00 0.00 0.00 94 1012.8
20191210161533 63 135 0.0 3.0 0.00 0.00 0.00 94 1012.8
20191210161022 63 182 0.0 3.0 0.00 0.00 0.00 94 1012.9
20191210160514 63 163 0.0 5.0 0.00 0.00 0.00 94 1013.0
20191210160023 63 81 0.0 5.0 0.00 0.00 0.00 94 1013.0
20191210155513 62 111 0.0 5.0 0.00 0.00 0.00 95 1013.0
20191210155012 62 120 0.0 5.0 0.00 0.00 0.00 94 1013.1
20191210154514 62 107 0.0 5.0 0.00 0.00 0.00 95 1013.1
20191210154010 61 78 0.0 3.0 0.00 0.00 0.00 95 1013.0
20191210153509 61 76 0.0 4.0 0.00 0.00 0.00 95 1013.0
20191210153020 61 82 0.0 3.0 0.00 0.00 0.00 94 1013.2
20191210152520 61 118 0.0 4.0 0.00 0.00 0.00 95 1013.1
20191210152015 60 87 0.0 5.0 0.00 0.00 0.00 94 1013.2
20191210151510 60 98 0.0 5.0 0.00 0.00 0.00 95 1013.2
20191210151006 59 211 0.0 3.0 0.00 0.00 0.00 94 1013.2
20191210150510 59 98 0.0 6.0 0.00 0.00 0.00 94 1013.2
20191210150002 59 125 0.0 4.0 0.00 0.00 0.00 94 1013.2
20191210145509 59 128 0.0 3.0 0.00 0.00 0.00 94 1013.3
20191210145107 58 153 0.0 1.0 0.00 0.00 0.00 94 1013.3
20191210144813 58 150 0.0 1.0 0.00 0.00 0.00 94 1013.3
20191210144110 58 155 0.0 3.0 0.00 0.00 0.00 94 1013.4
20191210143559 58 81 0.0 3.0 0.00 0.00 0.00 94 1013.5
20191210143303 58 102 0.0 0.0 0.00 0.00 0.00 94 1013.5
20191210142557 58 102 0.0 0.0 0.00 0.00 0.00 94 1013.4
20191210142058 57 111 0.0 0.0 0.00 0.00 0.00 94 1013.5
20191210141708 57 111 0.0 0.0 0.00 0.00 0.00 94 1013.4
20191210141054 57 111 0.0 0.0 0.00 0.00 0.00 94 1013.4
20191210140552 56 111 0.0 0.0 0.00 0.00 0.00 94 1013.4
20191210140305 56 112 0.0 0.0 0.00 0.00 0.00 94 1013.3
20191210135551 55 112 0.0 0.0 0.00 0.00 0.00 94 1013.3
20191210135056 55 112 0.0 0.0 0.00 0.00 0.00 94 1013.3
20191210134710 55 112 0.0 2.0 0.00 0.00 0.00 94 1013.3
20191210134057 54 112 0.0 2.0 0.00 0.00 0.00 94 1013.3
20191210133549 54 113 0.0 1.0 0.00 0.00 0.00 94 1013.3
20191210133247 54 113 0.0 1.0 0.00 0.00 0.00 94 1013.2
20191210132549 53 101 0.0 1.0 0.00 0.00 0.00 94 1013.2
20191210132049 53 101 0.0 1.0 0.00 0.00 0.00 94 1013.2
20191210131628 53 101 0.0 0.0 0.00 0.00 0.00 94 1013.3
20191210131101 52 101 0.0 0.0 0.00 0.00 0.00 94 1013.2
20191210130612 52 101 0.0 0.0 0.00 0.00 0.00 93 1013.2
20191210130143 52 101 0.0 0.0 0.00 0.00 0.00 93 1013.3
20191210125541 52 101 0.0 0.0 0.00 0.00 0.00 94 1013.3
20191210125041 52 101 0.0 0.0 0.00 0.00 0.00 94 1013.3
20191210124648 52 101 0.0 0.0 0.00 0.00 0.00 94 1013.3
20191210124039 52 101 0.0 0.0 0.00 0.00 0.00 94 1013.4
20191210123546 51 101 0.0 0.0 0.00 0.00 0.00 93 1013.4
20191210123121 51 101 0.0 0.0 0.00 0.00 0.00 93 1013.4
20191210122537 51 101 0.0 0.0 0.00 0.00 0.00 93 1013.4
20191210122046 51 101 0.0 0.0 0.00 0.00 0.00 93 1013.3
20191210121555 51 101 0.0 0.0 0.00 0.00 0.00 93 1013.5
20191210121035 51 101 0.0 0.0 0.00 0.00 0.00 93 1013.5
20191210120535 51 101 0.0 0.0 0.00 0.00 0.00 93 1013.6
20191210120203 51 101 0.0 0.0 0.00 0.00 0.00 93 1013.7
20191210115535 51 101 0.0 0.0 0.00 0.00 0.00 93 1013.6
20191210115036 51 101 0.0 0.0 0.00 0.00 0.00 93 1013.7
20191210114552 51 101 0.0 0.0 0.00 0.00 0.00 93 1013.6
20191210114036 51 101 0.0 0.0 0.00 0.00 0.00 93 1013.6
20191210113539 51 101 0.0 0.0 0.00 0.00 0.00 93 1013.6
20191210113153 51 101 0.0 0.0 0.00 0.00 0.00 93 1013.6
20191210112550 51 101 0.0 0.0 0.00 0.00 0.00 93 1013.5
20191210112035 51 101 0.0 0.0 0.00 0.00 0.00 93 1013.6
20191210111555 51 101 0.0 0.0 0.00 0.00 0.00 93 1013.6
20191210111113 51 101 0.0 0.0 0.00 0.00 0.00 93 1013.5
20191210110549 51 101 0.0 0.0 0.00 0.00 0.00 93 1013.5
20191210110121 51 101 0.0 0.0 0.00 0.00 0.00 93 1013.5
20191210105541 51 101 0.0 0.0 0.00 0.00 0.00 93 1013.5
20191210105033 51 101 0.0 0.0 0.00 0.00 0.00 93 1013.5
20191210104630 51 101 0.0 0.0 0.00 0.00 0.00 93 1013.6
20191210104052 51 101 0.0 0.0 0.00 0.00 0.00 93 1013.6
20191210103535 51 101 0.0 0.0 0.00 0.00 0.00 93 1013.6
20191210103210 51 101 0.0 0.0 0.00 0.00 0.00 93 1013.6
20191210102531 51 101 0.0 0.0 0.00 0.00 0.00 93 1013.5
20191210102030 50 101 0.0 0.0 0.00 0.00 0.00 93 1013.4
20191210101558 50 101 0.0 0.0 0.00 0.00 0.00 93 1013.1
20191210101027 50 101 0.0 0.0 0.00 0.00 0.00 93 1013.0
20191210100526 50 101 0.0 0.0 0.00 0.00 0.00 93 1013.1
20191210100110 50 101 0.0 0.0 0.00 0.00 0.00 92 1013.4
20191210095524 50 101 0.0 0.0 0.00 0.00 0.00 92 1013.3
20191210095042 50 101 0.0 0.0 0.00 0.00 0.00 92 1013.4
20191210094716 50 101 0.0 0.0 0.00 0.00 0.00 92 1013.5
20191210094037 50 101 0.0 0.0 0.00 0.00 0.00 92 1013.4
20191210093523 50 101 0.0 0.0 0.00 0.00 0.00 92 1013.3
20191210093124 50 101 0.0 0.0 0.00 0.00 0.00 92 1013.5
20191210092533 50 101 0.0 0.0 0.00 0.00 0.00 92 1013.6
20191210092022 50 101 0.0 0.0 0.00 0.00 0.00 92 1013.7
20191210091643 50 101 0.0 0.0 0.00 0.00 0.00 92 1013.7